sensor_id;sensor_type;location;lat;lon;timestamp;P1;durP1;ratioP1;P2;durP2;ratioP2
66487;SDS011;53304;54.550;18.526;2022-08-18T00:01:58;12.65;;;8.45;;
66487;SDS011;53304;54.550;18.526;2022-08-18T00:04:33;10.88;;;8.38;;
66487;SDS011;53304;54.550;18.526;2022-08-18T00:07:03;11.57;;;8.30;;
66487;SDS011;53304;54.550;18.526;2022-08-18T00:09:36;11.55;;;8.55;;
66487;SDS011;53304;54.550;18.526;2022-08-18T00:12:05;11.13;;;8.60;;
66487;SDS011;53304;54.550;18.526;2022-08-18T00:14:34;12.90;;;8.90;;
66487;SDS011;53304;54.550;18.526;2022-08-18T00:16:59;11.70;;;8.55;;
66487;SDS011;53304;54.550;18.526;2022-08-18T00:19:29;10.75;;;8.35;;
66487;SDS011;53304;54.550;18.526;2022-08-18T00:21:54;10.63;;;8.55;;
66487;SDS011;53304;54.550;18.526;2022-08-18T00:24:20;12.00;;;9.10;;
66487;SDS011;53304;54.550;18.526;2022-08-18T00:26:50;13.15;;;8.45;;
66487;SDS011;53304;54.550;18.526;2022-08-18T00:29:16;11.90;;;8.70;;
66487;SDS011;53304;54.550;18.526;2022-08-18T00:31:44;11.13;;;8.77;;
66487;SDS011;53304;54.550;18.526;2022-08-18T00:34:09;12.00;;;8.65;;
66487;SDS011;53304;54.550;18.526;2022-08-18T00:36:35;12.43;;;8.38;;
66487;SDS011;53304;54.550;18.526;2022-08-18T00:39:03;10.20;;;8.50;;
66487;SDS011;53304;54.550;18.526;2022-08-18T00:41:28;11.10;;;8.63;;
66487;SDS011;53304;54.550;18.526;2022-08-18T00:43:56;11.30;;;8.23;;
66487;SDS011;53304;54.550;18.526;2022-08-18T00:46:27;11.23;;;8.40;;
66487;SDS011;53304;54.550;18.526;2022-08-18T00:48:55;10.60;;;8.43;;
66487;SDS011;53304;54.550;18.526;2022-08-18T00:53:57;11.77;;;8.68;;
66487;SDS011;53304;54.550;18.526;2022-08-18T00:56:29;10.38;;;8.45;;
66487;SDS011;53304;54.550;18.526;2022-08-18T01:01:24;11.10;;;8.77;;
66487;SDS011;53304;54.550;18.526;2022-08-18T01:03:53;10.25;;;8.25;;
66487;SDS011;53304;54.550;18.526;2022-08-18T01:08:58;10.77;;;8.40;;
66487;SDS011;53304;54.550;18.526;2022-08-18T04:17:37;11.10;;;8.38;;
66487;SDS011;53304;54.550;18.526;2022-08-18T04:20:03;10.48;;;8.38;;
66487;SDS011;53304;54.550;18.526;2022-08-18T04:22:29;10.80;;;8.27;;
66487;SDS011;53304;54.550;18.526;2022-08-18T04:25:00;10.45;;;8.20;;
66487;SDS011;53304;54.550;18.526;2022-08-18T04:27:28;11.43;;;8.43;;
66487;SDS011;53304;54.550;18.526;2022-08-18T04:29:59;11.65;;;8.98;;
66487;SDS011;53304;54.550;18.526;2022-08-18T04:32:29;11.05;;;8.63;;
66487;SDS011;53304;54.550;18.526;2022-08-18T04:34:59;11.20;;;8.50;;
66487;SDS011;53304;54.550;18.526;2022-08-18T04:37:25;11.40;;;8.55;;
66487;SDS011;53304;54.550;18.526;2022-08-18T04:39:50;10.77;;;8.25;;
66487;SDS011;53304;54.550;18.526;2022-08-18T04:42:18;11.40;;;8.25;;
66487;SDS011;53304;54.550;18.526;2022-08-18T04:44:43;9.77;;;7.82;;
66487;SDS011;53304;54.550;18.526;2022-08-18T04:47:11;11.57;;;8.57;;
66487;SDS011;53304;54.550;18.526;2022-08-18T04:49:39;10.85;;;8.38;;
66487;SDS011;53304;54.550;18.526;2022-08-18T04:52:05;10.23;;;8.25;;
66487;SDS011;53304;54.550;18.526;2022-08-18T04:54:49;11.13;;;8.45;;
66487;SDS011;53304;54.550;18.526;2022-08-18T04:57:18;11.27;;;8.18;;
66487;SDS011;53304;54.550;18.526;2022-08-18T04:59:47;11.77;;;8.70;;
66487;SDS011;53304;54.550;18.526;2022-08-18T05:02:16;9.95;;;7.85;;
66487;SDS011;53304;54.550;18.526;2022-08-18T05:04:47;10.50;;;7.80;;
66487;SDS011;53304;54.550;18.526;2022-08-18T05:07:14;11.00;;;7.95;;
66487;SDS011;53304;54.550;18.526;2022-08-18T05:09:43;10.98;;;7.95;;
66487;SDS011;53304;54.550;18.526;2022-08-18T05:12:10;10.80;;;7.93;;
66487;SDS011;53304;54.550;18.526;2022-08-18T05:14:41;10.63;;;7.97;;
66487;SDS011;53304;54.550;18.526;2022-08-18T05:17:11;12.43;;;8.45;;
66487;SDS011;53304;54.550;18.526;2022-08-18T05:19:38;11.73;;;8.52;;
66487;SDS011;53304;54.550;18.526;2022-08-18T05:22:06;10.15;;;8.00;;
66487;SDS011;53304;54.550;18.526;2022-08-18T05:24:35;12.63;;;8.70;;
66487;SDS011;53304;54.550;18.526;2022-08-18T05:27:06;11.43;;;8.60;;
66487;SDS011;53304;54.550;18.526;2022-08-18T05:29:31;11.13;;;8.18;;
66487;SDS011;53304;54.550;18.526;2022-08-18T05:32:01;10.40;;;8.00;;
66487;SDS011;53304;54.550;18.526;2022-08-18T05:34:28;10.75;;;8.35;;
66487;SDS011;53304;54.550;18.526;2022-08-18T05:37:06;11.40;;;8.15;;
66487;SDS011;53304;54.550;18.526;2022-08-18T05:39:42;14.85;;;9.98;;
66487;SDS011;53304;54.550;18.526;2022-08-18T05:42:19;12.25;;;8.93;;
66487;SDS011;53304;54.550;18.526;2022-08-18T05:44:50;24.77;;;15.82;;
66487;SDS011;53304;54.550;18.526;2022-08-18T05:49:54;25.02;;;17.38;;
66487;SDS011;53304;54.550;18.526;2022-08-18T05:55:15;22.60;;;12.73;;
66487;SDS011;53304;54.550;18.526;2022-08-18T05:58:19;37.03;;;20.52;;
66487;SDS011;53304;54.550;18.526;2022-08-18T06:01:00;32.45;;;21.30;;
66487;SDS011;53304;54.550;18.526;2022-08-18T06:06:12;37.22;;;24.35;;
66487;SDS011;53304;54.550;18.526;2022-08-18T06:08:51;36.10;;;23.48;;
66487;SDS011;53304;54.550;18.526;2022-08-18T06:11:21;35.15;;;24.73;;
66487;SDS011;53304;54.550;18.526;2022-08-18T06:13:49;35.65;;;23.83;;
66487;SDS011;53304;54.550;18.526;2022-08-18T06:18:55;30.83;;;22.48;;
66487;SDS011;53304;54.550;18.526;2022-08-18T06:22:43;29.80;;;21.42;;
66487;SDS011;53304;54.550;18.526;2022-08-18T06:34:50;28.73;;;20.52;;
66487;SDS011;53304;54.550;18.526;2022-08-18T06:40:59;26.27;;;20.30;;
66487;SDS011;53304;54.550;18.526;2022-08-18T06:43:33;26.55;;;19.77;;
66487;SDS011;53304;54.550;18.526;2022-08-18T06:46:06;24.10;;;19.17;;
66487;SDS011;53304;54.550;18.526;2022-08-18T06:51:09;23.65;;;18.35;;
66487;SDS011;53304;54.550;18.526;2022-08-18T06:58:49;21.88;;;17.10;;
66487;SDS011;53304;54.550;18.526;2022-08-18T07:01:21;23.77;;;18.20;;
66487;SDS011;53304;54.550;18.526;2022-08-18T07:03:51;26.30;;;18.50;;
66487;SDS011;53304;54.550;18.526;2022-08-18T07:08:50;24.05;;;16.23;;
66487;SDS011;53304;54.550;18.526;2022-08-18T07:13:50;20.10;;;14.32;;
66487;SDS011;53304;54.550;18.526;2022-08-18T07:19:05;17.83;;;14.95;;
66487;SDS011;53304;54.550;18.526;2022-08-18T07:21:39;20.40;;;15.10;;
66487;SDS011;53304;54.550;18.526;2022-08-18T07:29:27;17.38;;;14.20;;
66487;SDS011;53304;54.550;18.526;2022-08-18T07:31:53;19.15;;;14.40;;
66487;SDS011;53304;54.550;18.526;2022-08-18T07:34:22;18.80;;;14.73;;
66487;SDS011;53304;54.550;18.526;2022-08-18T07:37:00;18.15;;;13.65;;
66487;SDS011;53304;54.550;18.526;2022-08-18T07:39:30;19.73;;;14.60;;
66487;SDS011;53304;54.550;18.526;2022-08-18T07:42:09;18.00;;;14.15;;
66487;SDS011;53304;54.550;18.526;2022-08-18T07:47:19;16.42;;;13.60;;
66487;SDS011;53304;54.550;18.526;2022-08-18T07:49:50;20.88;;;16.38;;
66487;SDS011;53304;54.550;18.526;2022-08-18T08:02:53;18.65;;;14.60;;
66487;SDS011;53304;54.550;18.526;2022-08-18T08:05:41;20.10;;;15.57;;
66487;SDS011;53304;54.550;18.526;2022-08-18T08:08:18;18.38;;;14.75;;
66487;SDS011;53304;54.550;18.526;2022-08-18T08:16:15;19.95;;;15.07;;
66487;SDS011;53304;54.550;18.526;2022-08-18T08:18:54;19.20;;;14.70;;
66487;SDS011;53304;54.550;18.526;2022-08-18T08:21:32;18.38;;;15.15;;
66487;SDS011;53304;54.550;18.526;2022-08-18T08:29:43;18.92;;;13.93;;
66487;SDS011;53304;54.550;18.526;2022-08-18T08:32:17;19.52;;;14.38;;
66487;SDS011;53304;54.550;18.526;2022-08-18T08:34:56;15.75;;;12.65;;
66487;SDS011;53304;54.550;18.526;2022-08-18T08:43:08;21.85;;;15.73;;
66487;SDS011;53304;54.550;18.526;2022-08-18T08:45:41;19.52;;;16.00;;
66487;SDS011;53304;54.550;18.526;2022-08-18T08:48:16;22.67;;;16.08;;
66487;SDS011;53304;54.550;18.526;2022-08-18T08:55:58;21.90;;;16.88;;
66487;SDS011;53304;54.550;18.526;2022-08-18T09:01:04;19.70;;;15.05;;
66487;SDS011;53304;54.550;18.526;2022-08-18T09:03:45;20.38;;;15.20;;
66487;SDS011;53304;54.550;18.526;2022-08-18T09:22:30;18.60;;;13.30;;
66487;SDS011;53304;54.550;18.526;2022-08-18T09:25:08;21.55;;;13.45;;
66487;SDS011;53304;54.550;18.526;2022-08-18T09:27:43;26.65;;;14.45;;
66487;SDS011;53304;54.550;18.526;2022-08-18T09:36:43;17.40;;;12.98;;
66487;SDS011;53304;54.550;18.526;2022-08-18T09:42:11;21.92;;;14.90;;
66487;SDS011;53304;54.550;18.526;2022-08-18T09:49:55;20.00;;;14.23;;
66487;SDS011;53304;54.550;18.526;2022-08-18T09:57:42;19.00;;;13.93;;
66487;SDS011;53304;54.550;18.526;2022-08-18T10:18:51;20.63;;;16.13;;
66487;SDS011;53304;54.550;18.526;2022-08-18T10:21:20;21.40;;;14.48;;
66487;SDS011;53304;54.550;18.526;2022-08-18T10:45:45;20.88;;;13.80;;
66487;SDS011;53304;54.550;18.526;2022-08-18T10:56:00;18.13;;;13.18;;
66487;SDS011;53304;54.550;18.526;2022-08-18T11:06:29;21.38;;;14.30;;
66487;SDS011;53304;54.550;18.526;2022-08-18T11:09:22;17.92;;;14.57;;
66487;SDS011;53304;54.550;18.526;2022-08-18T11:11:53;16.33;;;13.43;;
66487;SDS011;53304;54.550;18.526;2022-08-18T11:19:52;20.02;;;13.50;;
66487;SDS011;53304;54.550;18.526;2022-08-18T11:22:26;20.20;;;14.07;;
66487;SDS011;53304;54.550;18.526;2022-08-18T11:24:55;18.23;;;13.73;;
66487;SDS011;53304;54.550;18.526;2022-08-18T11:27:25;16.92;;;12.70;;
66487;SDS011;53304;54.550;18.526;2022-08-18T11:30:04;17.63;;;12.77;;
66487;SDS011;53304;54.550;18.526;2022-08-18T11:42:49;16.80;;;12.27;;
66487;SDS011;53304;54.550;18.526;2022-08-18T11:45:19;16.80;;;12.13;;
66487;SDS011;53304;54.550;18.526;2022-08-18T11:50:27;15.55;;;12.50;;
66487;SDS011;53304;54.550;18.526;2022-08-18T11:52:54;15.90;;;12.25;;
66487;SDS011;53304;54.550;18.526;2022-08-18T11:55:30;17.88;;;12.32;;
66487;SDS011;53304;54.550;18.526;2022-08-18T11:57:58;15.75;;;12.30;;
66487;SDS011;53304;54.550;18.526;2022-08-18T12:03:11;15.40;;;11.45;;
66487;SDS011;53304;54.550;18.526;2022-08-18T12:05:44;16.02;;;11.88;;
66487;SDS011;53304;54.550;18.526;2022-08-18T12:08:21;16.83;;;12.57;;
66487;SDS011;53304;54.550;18.526;2022-08-18T12:13:31;17.02;;;12.88;;
66487;SDS011;53304;54.550;18.526;2022-08-18T12:16:07;15.95;;;12.32;;
66487;SDS011;53304;54.550;18.526;2022-08-18T12:18:35;18.08;;;12.25;;
66487;SDS011;53304;54.550;18.526;2022-08-18T12:21:03;16.33;;;12.18;;
66487;SDS011;53304;54.550;18.526;2022-08-18T12:23:32;15.23;;;11.45;;
66487;SDS011;53304;54.550;18.526;2022-08-18T12:25:58;15.13;;;11.40;;
66487;SDS011;53304;54.550;18.526;2022-08-18T12:28:24;15.90;;;11.68;;
66487;SDS011;53304;54.550;18.526;2022-08-18T12:30:51;13.98;;;10.88;;
66487;SDS011;53304;54.550;18.526;2022-08-18T12:33:17;15.95;;;11.55;;
66487;SDS011;53304;54.550;18.526;2022-08-18T12:35:46;16.10;;;11.80;;
66487;SDS011;53304;54.550;18.526;2022-08-18T12:38:11;14.35;;;11.45;;
66487;SDS011;53304;54.550;18.526;2022-08-18T12:40:37;12.95;;;11.38;;
66487;SDS011;53304;54.550;18.526;2022-08-18T12:43:03;15.07;;;11.23;;
66487;SDS011;53304;54.550;18.526;2022-08-18T12:45:29;13.88;;;10.90;;
66487;SDS011;53304;54.550;18.526;2022-08-18T12:47:55;14.90;;;10.82;;
66487;SDS011;53304;54.550;18.526;2022-08-18T12:50:26;14.52;;;10.27;;
66487;SDS011;53304;54.550;18.526;2022-08-18T12:52:51;14.80;;;10.40;;
66487;SDS011;53304;54.550;18.526;2022-08-18T12:55:17;15.75;;;10.30;;
66487;SDS011;53304;54.550;18.526;2022-08-18T12:57:42;15.65;;;10.35;;
66487;SDS011;53304;54.550;18.526;2022-08-18T13:00:10;15.43;;;10.30;;
66487;SDS011;53304;54.550;18.526;2022-08-18T13:02:36;13.55;;;10.15;;
66487;SDS011;53304;54.550;18.526;2022-08-18T13:05:02;15.45;;;10.65;;
66487;SDS011;53304;54.550;18.526;2022-08-18T13:07:27;11.98;;;10.32;;
66487;SDS011;53304;54.550;18.526;2022-08-18T13:09:55;12.82;;;9.90;;
66487;SDS011;53304;54.550;18.526;2022-08-18T13:12:21;14.25;;;9.90;;
66487;SDS011;53304;54.550;18.526;2022-08-18T13:14:47;13.98;;;9.43;;
66487;SDS011;53304;54.550;18.526;2022-08-18T13:17:15;16.15;;;9.70;;
66487;SDS011;53304;54.550;18.526;2022-08-18T13:19:40;13.38;;;9.88;;
66487;SDS011;53304;54.550;18.526;2022-08-18T13:22:06;15.18;;;9.90;;
66487;SDS011;53304;54.550;18.526;2022-08-18T13:24:31;17.15;;;9.73;;
66487;SDS011;53304;54.550;18.526;2022-08-18T13:26:56;10.68;;;8.55;;
66487;SDS011;53304;54.550;18.526;2022-08-18T13:29:22;13.70;;;9.55;;
66487;SDS011;53304;54.550;18.526;2022-08-18T13:31:50;12.90;;;9.00;;
66487;SDS011;53304;54.550;18.526;2022-08-18T13:34:21;13.57;;;9.05;;
66487;SDS011;53304;54.550;18.526;2022-08-18T13:36:46;16.08;;;9.13;;
66487;SDS011;53304;54.550;18.526;2022-08-18T13:39:16;15.52;;;9.43;;
66487;SDS011;53304;54.550;18.526;2022-08-18T13:41:46;12.70;;;9.07;;
66487;SDS011;53304;54.550;18.526;2022-08-18T13:44:13;13.07;;;9.38;;
66487;SDS011;53304;54.550;18.526;2022-08-18T13:46:44;14.60;;;9.85;;
66487;SDS011;53304;54.550;18.526;2022-08-18T13:49:19;14.52;;;9.48;;
66487;SDS011;53304;54.550;18.526;2022-08-18T13:51:49;13.02;;;9.32;;
66487;SDS011;53304;54.550;18.526;2022-08-18T13:54:20;13.35;;;9.00;;
66487;SDS011;53304;54.550;18.526;2022-08-18T13:56:47;12.60;;;9.05;;
66487;SDS011;53304;54.550;18.526;2022-08-18T13:59:13;11.45;;;9.02;;
66487;SDS011;53304;54.550;18.526;2022-08-18T14:01:39;12.75;;;8.85;;
66487;SDS011;53304;54.550;18.526;2022-08-18T14:04:05;12.20;;;9.13;;
66487;SDS011;53304;54.550;18.526;2022-08-18T14:06:31;13.80;;;8.68;;
66487;SDS011;53304;54.550;18.526;2022-08-18T14:08:59;12.27;;;8.63;;
66487;SDS011;53304;54.550;18.526;2022-08-18T14:11:27;12.20;;;8.68;;
66487;SDS011;53304;54.550;18.526;2022-08-18T14:13:56;13.60;;;8.88;;
66487;SDS011;53304;54.550;18.526;2022-08-18T14:16:22;11.73;;;8.77;;
66487;SDS011;53304;54.550;18.526;2022-08-18T14:18:53;13.35;;;9.13;;
66487;SDS011;53304;54.550;18.526;2022-08-18T14:21:39;12.05;;;8.90;;
66487;SDS011;53304;54.550;18.526;2022-08-18T14:24:27;11.55;;;8.68;;
66487;SDS011;53304;54.550;18.526;2022-08-18T14:27:11;12.30;;;9.02;;
66487;SDS011;53304;54.550;18.526;2022-08-18T14:29:37;14.60;;;8.57;;
66487;SDS011;53304;54.550;18.526;2022-08-18T14:32:10;13.02;;;9.10;;
66487;SDS011;53304;54.550;18.526;2022-08-18T14:34:41;12.20;;;8.13;;
66487;SDS011;53304;54.550;18.526;2022-08-18T14:37:09;13.93;;;8.98;;
66487;SDS011;53304;54.550;18.526;2022-08-18T14:39:38;11.88;;;8.25;;
66487;SDS011;53304;54.550;18.526;2022-08-18T14:42:03;14.35;;;8.82;;
66487;SDS011;53304;54.550;18.526;2022-08-18T14:44:29;13.35;;;8.07;;
66487;SDS011;53304;54.550;18.526;2022-08-18T14:46:54;12.93;;;8.40;;
66487;SDS011;53304;54.550;18.526;2022-08-18T14:49:24;11.73;;;8.25;;
66487;SDS011;53304;54.550;18.526;2022-08-18T14:51:56;13.55;;;8.68;;
66487;SDS011;53304;54.550;18.526;2022-08-18T14:54:27;10.75;;;8.43;;
66487;SDS011;53304;54.550;18.526;2022-08-18T14:56:55;12.02;;;8.70;;
66487;SDS011;53304;54.550;18.526;2022-08-18T15:01:52;13.38;;;7.95;;
66487;SDS011;53304;54.550;18.526;2022-08-18T15:04:20;15.07;;;8.10;;
66487;SDS011;53304;54.550;18.526;2022-08-18T15:06:48;11.55;;;8.00;;
66487;SDS011;53304;54.550;18.526;2022-08-18T15:09:19;10.38;;;8.13;;
66487;SDS011;53304;54.550;18.526;2022-08-18T15:11:44;10.75;;;8.15;;
66487;SDS011;53304;54.550;18.526;2022-08-18T15:14:09;10.63;;;7.78;;
66487;SDS011;53304;54.550;18.526;2022-08-18T15:16:41;12.25;;;8.00;;
66487;SDS011;53304;54.550;18.526;2022-08-18T15:19:07;12.15;;;8.18;;
66487;SDS011;53304;54.550;18.526;2022-08-18T15:21:34;13.50;;;7.80;;
66487;SDS011;53304;54.550;18.526;2022-08-18T15:24:19;14.75;;;7.53;;
66487;SDS011;53304;54.550;18.526;2022-08-18T15:27:03;11.60;;;7.53;;
66487;SDS011;53304;54.550;18.526;2022-08-18T15:29:32;12.65;;;7.57;;
66487;SDS011;53304;54.550;18.526;2022-08-18T15:32:00;9.80;;;7.60;;
66487;SDS011;53304;54.550;18.526;2022-08-18T15:34:29;14.80;;;7.93;;
66487;SDS011;53304;54.550;18.526;2022-08-18T15:36:54;13.82;;;7.53;;
66487;SDS011;53304;54.550;18.526;2022-08-18T15:39:23;13.27;;;7.95;;
66487;SDS011;53304;54.550;18.526;2022-08-18T15:41:49;13.20;;;7.82;;
66487;SDS011;53304;54.550;18.526;2022-08-18T15:44:17;12.23;;;7.20;;
66487;SDS011;53304;54.550;18.526;2022-08-18T15:46:45;12.32;;;7.97;;
66487;SDS011;53304;54.550;18.526;2022-08-18T15:49:13;10.52;;;7.25;;
66487;SDS011;53304;54.550;18.526;2022-08-18T15:51:45;14.27;;;7.75;;
66487;SDS011;53304;54.550;18.526;2022-08-18T15:54:13;11.32;;;7.32;;
66487;SDS011;53304;54.550;18.526;2022-08-18T15:56:38;15.18;;;7.40;;
66487;SDS011;53304;54.550;18.526;2022-08-18T15:59:06;11.98;;;7.47;;
66487;SDS011;53304;54.550;18.526;2022-08-18T16:01:36;11.30;;;7.53;;
66487;SDS011;53304;54.550;18.526;2022-08-18T16:04:05;12.15;;;7.07;;
66487;SDS011;53304;54.550;18.526;2022-08-18T16:06:34;12.35;;;7.28;;
66487;SDS011;53304;54.550;18.526;2022-08-18T16:09:07;14.00;;;7.82;;
66487;SDS011;53304;54.550;18.526;2022-08-18T16:11:35;12.85;;;7.53;;
66487;SDS011;53304;54.550;18.526;2022-08-18T16:14:00;16.30;;;7.95;;
66487;SDS011;53304;54.550;18.526;2022-08-18T16:16:26;11.95;;;7.20;;
66487;SDS011;53304;54.550;18.526;2022-08-18T16:18:54;15.05;;;7.57;;
66487;SDS011;53304;54.550;18.526;2022-08-18T16:21:22;11.82;;;6.82;;
66487;SDS011;53304;54.550;18.526;2022-08-18T16:23:48;10.82;;;6.63;;
66487;SDS011;53304;54.550;18.526;2022-08-18T16:26:18;14.25;;;6.90;;
66487;SDS011;53304;54.550;18.526;2022-08-18T16:28:45;19.77;;;7.50;;
66487;SDS011;53304;54.550;18.526;2022-08-18T16:31:12;13.07;;;7.10;;
66487;SDS011;53304;54.550;18.526;2022-08-18T16:33:40;11.32;;;7.50;;
66487;SDS011;53304;54.550;18.526;2022-08-18T16:36:07;15.75;;;8.02;;
66487;SDS011;53304;54.550;18.526;2022-08-18T16:38:34;23.58;;;9.45;;
66487;SDS011;53304;54.550;18.526;2022-08-18T16:41:05;21.23;;;9.07;;
66487;SDS011;53304;54.550;18.526;2022-08-18T16:43:33;17.48;;;8.80;;
66487;SDS011;53304;54.550;18.526;2022-08-18T16:45:59;18.15;;;8.70;;
66487;SDS011;53304;54.550;18.526;2022-08-18T16:48:27;16.98;;;8.70;;
66487;SDS011;53304;54.550;18.526;2022-08-18T16:50:56;21.60;;;8.55;;
66487;SDS011;53304;54.550;18.526;2022-08-18T16:53:21;15.20;;;7.55;;
66487;SDS011;53304;54.550;18.526;2022-08-18T16:55:49;14.77;;;7.15;;
66487;SDS011;53304;54.550;18.526;2022-08-18T16:58:14;12.32;;;6.90;;
66487;SDS011;53304;54.550;18.526;2022-08-18T17:01:00;11.82;;;6.40;;
66487;SDS011;53304;54.550;18.526;2022-08-18T17:03:45;11.05;;;5.70;;
66487;SDS011;53304;54.550;18.526;2022-08-18T17:06:29;11.20;;;6.00;;
66487;SDS011;53304;54.550;18.526;2022-08-18T17:08:54;10.32;;;5.22;;
66487;SDS011;53304;54.550;18.526;2022-08-18T17:11:23;9.27;;;4.75;;
66487;SDS011;53304;54.550;18.526;2022-08-18T17:13:53;8.45;;;4.75;;
66487;SDS011;53304;54.550;18.526;2022-08-18T17:16:23;9.38;;;4.68;;
66487;SDS011;53304;54.550;18.526;2022-08-18T17:18:50;10.20;;;4.32;;
66487;SDS011;53304;54.550;18.526;2022-08-18T17:21:17;9.38;;;4.53;;
66487;SDS011;53304;54.550;18.526;2022-08-18T17:23:46;8.45;;;4.30;;
66487;SDS011;53304;54.550;18.526;2022-08-18T17:31:39;8.57;;;3.80;;
66487;SDS011;53304;54.550;18.526;2022-08-18T17:34:17;7.65;;;3.78;;
66487;SDS011;53304;54.550;18.526;2022-08-18T17:36:49;7.43;;;3.90;;
66487;SDS011;53304;54.550;18.526;2022-08-18T17:39:16;6.95;;;3.80;;
66487;SDS011;53304;54.550;18.526;2022-08-18T17:41:44;7.53;;;3.90;;
66487;SDS011;53304;54.550;18.526;2022-08-18T17:44:34;7.30;;;3.72;;
66487;SDS011;53304;54.550;18.526;2022-08-18T17:47:04;8.38;;;3.83;;
66487;SDS011;53304;54.550;18.526;2022-08-18T17:49:34;15.57;;;4.97;;
66487;SDS011;53304;54.550;18.526;2022-08-18T17:52:21;11.02;;;4.30;;
66487;SDS011;53304;54.550;18.526;2022-08-18T17:54:50;9.60;;;4.20;;
66487;SDS011;53304;54.550;18.526;2022-08-18T17:57:22;10.20;;;4.25;;
66487;SDS011;53304;54.550;18.526;2022-08-18T18:00:14;8.02;;;4.07;;
66487;SDS011;53304;54.550;18.526;2022-08-18T18:02:44;10.00;;;4.10;;
66487;SDS011;53304;54.550;18.526;2022-08-18T18:05:14;10.40;;;4.07;;
66487;SDS011;53304;54.550;18.526;2022-08-18T18:10:23;11.57;;;4.03;;
66487;SDS011;53304;54.550;18.526;2022-08-18T18:13:12;10.52;;;4.18;;
66487;SDS011;53304;54.550;18.526;2022-08-18T18:15:40;10.88;;;3.88;;
66487;SDS011;53304;54.550;18.526;2022-08-18T18:23:27;8.37;;;3.30;;
66487;SDS011;53304;54.550;18.526;2022-08-18T18:25:57;10.27;;;3.30;;
66487;SDS011;53304;54.550;18.526;2022-08-18T18:28:23;7.30;;;3.20;;
66487;SDS011;53304;54.550;18.526;2022-08-18T18:30:53;10.25;;;3.30;;
66487;SDS011;53304;54.550;18.526;2022-08-18T18:33:23;8.13;;;3.20;;
66487;SDS011;53304;54.550;18.526;2022-08-18T18:35:56;9.80;;;3.05;;
66487;SDS011;53304;54.550;18.526;2022-08-18T18:38:30;8.32;;;3.13;;
66487;SDS011;53304;54.550;18.526;2022-08-18T18:43:25;5.07;;;2.83;;
66487;SDS011;53304;54.550;18.526;2022-08-18T18:46:30;8.55;;;3.00;;
66487;SDS011;53304;54.550;18.526;2022-08-18T18:49:05;6.65;;;2.80;;
66487;SDS011;53304;54.550;18.526;2022-08-18T18:57:16;7.88;;;3.10;;
66487;SDS011;53304;54.550;18.526;2022-08-18T19:05:41;9.55;;;3.00;;
66487;SDS011;53304;54.550;18.526;2022-08-18T19:08:25;5.63;;;2.85;;
66487;SDS011;53304;54.550;18.526;2022-08-18T19:11:05;7.20;;;3.22;;
66487;SDS011;53304;54.550;18.526;2022-08-18T19:13:38;5.97;;;2.80;;
66487;SDS011;53304;54.550;18.526;2022-08-18T19:19:00;6.05;;;3.05;;
66487;SDS011;53304;54.550;18.526;2022-08-18T19:21:28;7.25;;;3.00;;
66487;SDS011;53304;54.550;18.526;2022-08-18T19:26:50;5.55;;;2.92;;
66487;SDS011;53304;54.550;18.526;2022-08-18T19:29:25;6.20;;;3.00;;
66487;SDS011;53304;54.550;18.526;2022-08-18T19:32:07;5.65;;;2.75;;
66487;SDS011;53304;54.550;18.526;2022-08-18T19:34:37;6.03;;;2.85;;
66487;SDS011;53304;54.550;18.526;2022-08-18T19:42:59;4.75;;;2.90;;
66487;SDS011;53304;54.550;18.526;2022-08-18T19:48:00;6.85;;;2.78;;
66487;SDS011;53304;54.550;18.526;2022-08-18T19:50:32;6.22;;;2.85;;
66487;SDS011;53304;54.550;18.526;2022-08-18T20:06:54;6.15;;;2.72;;
66487;SDS011;53304;54.550;18.526;2022-08-18T20:15:23;4.78;;;2.95;;
66487;SDS011;53304;54.550;18.526;2022-08-18T20:20:18;5.10;;;3.05;;
66487;SDS011;53304;54.550;18.526;2022-08-18T20:22:51;5.22;;;2.92;;
66487;SDS011;53304;54.550;18.526;2022-08-18T20:28:17;8.33;;;3.13;;
66487;SDS011;53304;54.550;18.526;2022-08-18T20:35:49;4.75;;;2.80;;
66487;SDS011;53304;54.550;18.526;2022-08-18T20:44:05;5.35;;;3.10;;
66487;SDS011;53304;54.550;18.526;2022-08-18T20:49:55;5.90;;;2.90;;
66487;SDS011;53304;54.550;18.526;2022-08-18T20:53:03;7.05;;;3.10;;
66487;SDS011;53304;54.550;18.526;2022-08-18T20:58:40;6.45;;;3.20;;
66487;SDS011;53304;54.550;18.526;2022-08-18T21:01:21;5.63;;;3.30;;
66487;SDS011;53304;54.550;18.526;2022-08-18T21:03:52;4.82;;;2.95;;
66487;SDS011;53304;54.550;18.526;2022-08-18T21:06:20;6.70;;;3.30;;
66487;SDS011;53304;54.550;18.526;2022-08-18T21:08:50;6.78;;;3.33;;
66487;SDS011;53304;54.550;18.526;2022-08-18T21:11:21;6.95;;;3.10;;
66487;SDS011;53304;54.550;18.526;2022-08-18T21:13:48;5.13;;;3.03;;
66487;SDS011;53304;54.550;18.526;2022-08-18T21:18:56;6.60;;;3.35;;
66487;SDS011;53304;54.550;18.526;2022-08-18T21:21:27;6.07;;;3.17;;
66487;SDS011;53304;54.550;18.526;2022-08-18T21:23:57;4.68;;;3.00;;
66487;SDS011;53304;54.550;18.526;2022-08-18T21:26:24;5.50;;;3.17;;
66487;SDS011;53304;54.550;18.526;2022-08-18T21:29:10;5.95;;;3.20;;
66487;SDS011;53304;54.550;18.526;2022-08-18T21:31:38;5.80;;;3.30;;
66487;SDS011;53304;54.550;18.526;2022-08-18T21:34:06;5.78;;;3.33;;
66487;SDS011;53304;54.550;18.526;2022-08-18T21:36:33;5.15;;;3.20;;
66487;SDS011;53304;54.550;18.526;2022-08-18T21:39:05;5.30;;;3.20;;
66487;SDS011;53304;54.550;18.526;2022-08-18T21:41:42;5.25;;;3.40;;
66487;SDS011;53304;54.550;18.526;2022-08-18T21:44:18;5.68;;;3.30;;
66487;SDS011;53304;54.550;18.526;2022-08-18T21:46:48;6.38;;;3.30;;
66487;SDS011;53304;54.550;18.526;2022-08-18T21:49:22;5.28;;;3.38;;
66487;SDS011;53304;54.550;18.526;2022-08-18T21:51:53;5.53;;;3.28;;
66487;SDS011;53304;54.550;18.526;2022-08-18T21:54:22;5.38;;;3.30;;
66487;SDS011;53304;54.550;18.526;2022-08-18T22:02:44;6.00;;;3.60;;
66487;SDS011;53304;54.550;18.526;2022-08-18T22:05:11;8.40;;;3.58;;
66487;SDS011;53304;54.550;18.526;2022-08-18T22:07:44;5.45;;;3.13;;
66487;SDS011;53304;54.550;18.526;2022-08-18T22:13:20;6.45;;;3.38;;
66487;SDS011;53304;54.550;18.526;2022-08-18T22:16:28;5.03;;;3.10;;
66487;SDS011;53304;54.550;18.526;2022-08-18T22:21:40;6.95;;;3.10;;
66487;SDS011;53304;54.550;18.526;2022-08-18T22:24:14;6.60;;;3.55;;
66487;SDS011;53304;54.550;18.526;2022-08-18T22:26:46;6.85;;;3.22;;
66487;SDS011;53304;54.550;18.526;2022-08-18T22:29:29;6.65;;;3.25;;
66487;SDS011;53304;54.550;18.526;2022-08-18T22:31:59;6.15;;;3.20;;
66487;SDS011;53304;54.550;18.526;2022-08-18T22:34:26;5.07;;;3.17;;
66487;SDS011;53304;54.550;18.526;2022-08-18T22:37:07;5.95;;;3.10;;
66487;SDS011;53304;54.550;18.526;2022-08-18T22:42:15;5.63;;;3.40;;
66487;SDS011;53304;54.550;18.526;2022-08-18T22:44:42;6.55;;;3.20;;
66487;SDS011;53304;54.550;18.526;2022-08-18T22:47:10;4.60;;;2.75;;
66487;SDS011;53304;54.550;18.526;2022-08-18T22:49:41;5.43;;;3.00;;
66487;SDS011;53304;54.550;18.526;2022-08-18T22:54:50;6.38;;;3.20;;
66487;SDS011;53304;54.550;18.526;2022-08-18T22:57:19;5.53;;;3.20;;
66487;SDS011;53304;54.550;18.526;2022-08-18T22:59:44;6.78;;;3.15;;
66487;SDS011;53304;54.550;18.526;2022-08-18T23:02:13;6.45;;;3.35;;